Time,TemperatureF,DewpointF,PressureIn,WindDirection,WindDirectionDegrees,WindSpeedMPH,WindSpeedGustMPH,Humidity,HourlyPrecipIn,Conditions,Clouds,dailyrainin,SoftwareType,DateUTC
2013-10-29 09:30:00,55.2,41.1,29.97,SE,146,7.0,7.0,59,0.00,,,0.00,Wunderground v.1.15,2013-10-29 16:30:00,
2013-10-29 09:40:00,55.8,40.8,29.97,SSE,167,7.0,7.0,57,0.00,,,0.00,Wunderground v.1.15,2013-10-29 16:40:00,
2013-10-29 09:45:00,56.1,41.1,29.96,SE,124,7.0,8.0,57,0.00,,,0.00,Wunderground v.1.15,2013-10-29 16:45:00,
2013-10-29 09:55:00,56.4,40.4,29.96,SSE,150,8.0,9.0,55,0.00,,,0.00,Wunderground v.1.15,2013-10-29 16:55:00,
2013-10-29 10:00:00,56.5,40.5,29.96,SE,141,9.0,9.0,55,0.00,,,0.00,Wunderground v.1.15,2013-10-29 17:00:00,
2013-10-29 10:10:00,56.7,40.7,29.96,South,187,7.0,13.0,55,0.00,,,0.00,Wunderground v.1.15,2013-10-29 17:10:00,
2013-10-29 10:15:00,56.7,40.7,29.95,SW,217,8.0,13.0,55,0.00,,,0.00,Wunderground v.1.15,2013-10-29 17:15:00,
2013-10-29 10:25:00,56.6,40.6,29.95,South,179,9.0,16.0,55,0.00,,,0.00,Wunderground v.1.15,2013-10-29 17:25:00,
2013-10-29 10:30:00,56.8,40.8,29.96,South,170,10.0,14.0,55,0.00,,,0.00,Wunderground v.1.15,2013-10-29 17:30:00,
2013-10-29 10:40:00,56.8,39.8,29.95,East,98,10.0,11.0,53,0.00,,,0.00,Wunderground v.1.15,2013-10-29 17:40:00,
2013-10-29 10:45:00,57.0,41.4,29.95,SSE,161,10.0,12.0,56,0.00,,,0.00,Wunderground v.1.15,2013-10-29 17:45:00,
2013-10-29 10:55:00,57.2,40.7,29.95,SE,131,9.0,16.0,54,0.00,,,0.00,Wunderground v.1.15,2013-10-29 17:55:00,
2013-10-29 11:00:00,57.1,40.6,29.95,SE,142,8.0,8.0,54,0.00,,,0.00,Wunderground v.1.15,2013-10-29 18:00:00,
2013-10-29 11:10:00,57.2,40.7,29.95,ESE,103,8.0,14.0,54,0.00,,,0.00,Wunderground v.1.15,2013-10-29 18:10:00,
2013-10-29 11:15:00,56.9,40.9,29.95,South,176,10.0,14.0,55,0.00,,,0.00,Wunderground v.1.15,2013-10-29 18:15:00,
2013-10-29 11:25:00,57.1,40.1,29.95,South,170,7.0,8.0,53,0.00,,,0.00,Wunderground v.1.15,2013-10-29 18:25:00,
2013-10-29 11:30:00,57.2,40.2,29.94,South,182,8.0,8.0,53,0.00,,,0.00,Wunderground v.1.15,2013-10-29 18:30:00,
2013-10-29 11:40:00,57.4,39.9,29.94,SSW,207,8.0,8.0,52,0.00,,,0.00,Wunderground v.1.15,2013-10-29 18:40:00,
2013-10-29 11:45:00,57.5,40.5,29.93,SE,136,7.0,8.0,53,0.00,,,0.00,Wunderground v.1.15,2013-10-29 18:45:00,
2013-10-29 11:55:00,57.6,40.6,29.93,South,175,7.0,10.0,53,0.00,,,0.00,Wunderground v.1.15,2013-10-29 18:55:00,
2013-10-29 12:00:00,57.7,40.7,29.94,SSW,210,7.0,8.0,53,0.00,,,0.00,Wunderground v.1.15,2013-10-29 19:00:00,
2013-10-29 12:10:00,57.4,40.9,29.93,SE,145,6.0,7.0,54,0.00,,,0.00,Wunderground v.1.15,2013-10-29 19:10:00,
2013-10-29 12:15:00,57.3,40.8,29.93,SSE,167,7.0,7.0,54,0.00,,,0.00,Wunderground v.1.15,2013-10-29 19:15:00,
2013-10-29 12:25:00,57.2,40.7,29.92,South,186,8.0,8.0,54,0.00,,,0.00,Wunderground v.1.15,2013-10-29 19:25:00,
2013-10-29 12:30:00,57.2,40.7,29.92,SSE,152,8.0,8.0,54,0.00,,,0.00,Wunderground v.1.15,2013-10-29 19:30:00,
2013-10-29 12:40:00,57.1,40.1,29.91,SE,127,8.0,8.0,53,0.00,,,0.00,Wunderground v.1.15,2013-10-29 19:40:00,
2013-10-29 12:45:00,57.1,40.1,29.91,SE,129,8.0,8.0,53,0.00,,,0.00,Wunderground v.1.15,2013-10-29 19:45:00,
2013-10-29 12:55:00,57.0,39.5,29.91,SSW,203,6.0,7.0,52,0.00,,,0.00,Wunderground v.1.15,2013-10-29 19:55:00,
2013-10-29 13:00:00,57.0,39.0,29.90,SE,143,6.0,6.0,51,0.00,,,0.00,Wunderground v.1.15,2013-10-29 20:00:00,
2013-10-29 13:10:00,57.1,37.6,29.91,SE,143,5.0,6.0,48,0.00,,,0.00,Wunderground v.1.15,2013-10-29 20:10:00,
2013-10-29 13:15:00,57.2,37.7,29.90,SSW,210,4.0,7.0,48,0.00,,,0.00,Wunderground v.1.15,2013-10-29 20:15:00,
2013-10-29 13:25:00,57.6,35.2,29.90,SSW,212,3.0,4.0,43,0.00,,,0.00,Wunderground v.1.15,2013-10-29 20:25:00,
2013-10-29 13:30:00,57.8,34.2,29.91,SSW,195,3.0,5.0,41,0.00,,,0.00,Wunderground v.1.15,2013-10-29 20:30:00,
2013-10-29 13:40:00,58.3,34.1,29.90,SSW,207,4.0,7.0,40,0.00,,,0.00,Wunderground v.1.15,2013-10-29 20:40:00,
2013-10-29 13:45:00,58.6,34.3,29.90,South,190,4.0,7.0,40,0.00,,,0.00,Wunderground v.1.15,2013-10-29 20:45:00,
2013-10-29 13:55:00,58.8,34.5,29.90,WSW,256,4.0,7.0,40,0.00,,,0.00,Wunderground v.1.15,2013-10-29 20:55:00,
2013-10-29 14:00:00,58.6,34.3,29.90,SSW,208,3.0,3.0,40,0.00,,,0.00,Wunderground v.1.15,2013-10-29 21:00:00,
2013-10-29 14:10:00,58.0,33.8,29.91,South,191,5.0,5.0,40,0.00,,,0.00,Wunderground v.1.15,2013-10-29 21:10:00,
2013-10-29 14:15:00,57.8,35.4,29.91,WNW,290,4.0,5.0,43,0.00,,,0.00,Wunderground v.1.15,2013-10-29 21:15:00,
2013-10-29 14:25:00,58.2,34.0,29.91,SSW,206,4.0,4.0,40,0.00,,,0.00,Wunderground v.1.15,2013-10-29 21:25:00,
2013-10-29 14:30:00,58.1,33.2,29.90,West,276,4.0,4.0,39,0.00,,,0.00,Wunderground v.1.15,2013-10-29 21:30:00,
2013-10-29 14:40:00,58.3,33.4,29.90,SSW,194,3.0,3.0,39,0.00,,,0.00,Wunderground v.1.15,2013-10-29 21:40:00,
2013-10-29 14:45:00,58.5,33.0,29.90,WNW,285,3.0,7.0,38,0.00,,,0.00,Wunderground v.1.15,2013-10-29 21:45:00,
2013-10-29 14:55:00,59.7,34.0,29.90,SE,143,4.0,5.0,38,0.00,,,0.00,Wunderground v.1.15,2013-10-29 21:55:00,
2013-10-29 15:00:00,60.4,32.6,29.89,East,86,3.0,3.0,35,0.00,,,0.00,Wunderground v.1.15,2013-10-29 22:00:00,
2013-10-29 15:10:00,60.8,33.0,29.90,SSW,207,3.0,7.0,35,0.00,,,0.00,Wunderground v.1.15,2013-10-29 22:10:00,
2013-10-29 15:15:00,60.8,32.2,29.90,South,181,5.0,8.0,34,0.00,,,0.00,Wunderground v.1.15,2013-10-29 22:15:00,
2013-10-29 15:25:00,59.6,31.9,29.90,SSW,208,5.0,11.0,35,0.00,,,0.00,Wunderground v.1.15,2013-10-29 22:25:00,
2013-10-29 15:30:00,59.4,31.7,29.90,SSW,210,5.0,5.0,35,0.00,,,0.00,Wunderground v.1.15,2013-10-29 22:30:00,
2013-10-29 15:40:00,58.6,31.0,29.90,SSW,207,6.0,6.0,35,0.00,,,0.00,Wunderground v.1.15,2013-10-29 22:40:00,
2013-10-29 15:45:00,58.2,30.7,29.90,SSW,209,7.0,7.0,35,0.00,,,0.00,Wunderground v.1.15,2013-10-29 22:45:00,
2013-10-29 15:55:00,58.4,31.5,29.90,SSW,203,3.0,6.0,36,0.00,,,0.00,Wunderground v.1.15,2013-10-29 22:55:00,
2013-10-29 16:00:00,58.2,30.7,29.91,WSW,258,2.0,2.0,35,0.00,,,0.00,Wunderground v.1.15,2013-10-29 23:00:00,
2013-10-29 16:10:00,57.6,30.1,29.90,WSW,240,6.0,6.0,35,0.00,,,0.00,Wunderground v.1.15,2013-10-29 23:10:00,
2013-10-29 16:16:00,57.4,29.9,29.90,West,266,5.0,6.0,35,0.00,,,0.00,Wunderground v.1.15,2013-10-29 23:16:00,
2013-10-29 16:25:00,57.1,30.4,29.91,SW,216,2.0,2.0,36,0.00,,,0.00,Wunderground v.1.15,2013-10-29 23:25:00,
2013-10-29 16:30:00,56.7,31.4,29.91,WNW,287,5.0,5.0,38,0.00,,,0.00,Wunderground v.1.15,2013-10-29 23:30:00,
2013-10-29 16:40:00,56.5,31.8,29.91,West,267,2.0,2.0,39,0.00,,,0.00,Wunderground v.1.15,2013-10-29 23:40:00,
2013-10-29 16:45:00,56.8,31.4,29.92,WNW,285,1.0,2.0,38,0.00,,,0.00,Wunderground v.1.15,2013-10-29 23:45:00,
2013-10-29 16:55:00,57.4,29.9,29.92,South,180,5.0,5.0,35,0.00,,,0.00,Wunderground v.1.15,2013-10-29 23:55:00,
2013-10-29 17:01:00,56.9,30.2,29.92,WNW,282,3.0,4.0,36,0.00,,,0.00,Wunderground v.1.15,2013-10-30 00:01:00,
2013-10-29 17:10:00,56.1,31.5,29.92,SW,228,2.0,8.0,39,0.00,,,0.00,Wunderground v.1.15,2013-10-30 00:10:00,
2013-10-29 17:15:00,55.6,31.6,29.93,WNW,285,4.0,8.0,40,0.00,,,0.00,Wunderground v.1.15,2013-10-30 00:15:00,
2013-10-29 17:25:00,55.2,32.5,29.93,SSE,156,1.0,4.0,42,0.00,,,0.00,Wunderground v.1.15,2013-10-30 00:25:00,
2013-10-29 17:30:00,54.9,32.2,29.93,SSE,153,0.0,0.0,42,0.00,,,0.00,Wunderground v.1.15,2013-10-30 00:30:00,
2013-10-29 17:40:00,54.3,31.7,29.94,West,266,1.0,1.0,42,0.00,,,0.00,Wunderground v.1.15,2013-10-30 00:40:00,
2013-10-29 17:46:00,53.9,31.9,29.94,SW,224,0.0,1.0,43,0.00,,,0.00,Wunderground v.1.15,2013-10-30 00:46:00,
2013-10-29 17:55:00,53.3,31.9,29.95,West,260,0.0,0.0,44,0.00,,,0.00,Wunderground v.1.15,2013-10-30 00:55:00,
2013-10-29 18:00:00,53.0,31.6,29.95,West,268,1.0,2.0,44,0.00,,,0.00,Wunderground v.1.15,2013-10-30 01:00:00,
2013-10-29 18:10:00,52.7,31.9,29.96,West,271,0.0,1.0,45,0.00,,,0.00,Wunderground v.1.15,2013-10-30 01:10:00,
2013-10-29 18:15:00,52.7,31.9,29.96,WSW,258,1.0,1.0,45,0.00,,,0.00,Wunderground v.1.15,2013-10-30 01:15:00,
2013-10-29 18:25:00,52.3,32.1,29.96,SW,218,1.0,1.0,46,0.00,,,0.00,Wunderground v.1.15,2013-10-30 01:25:00,
2013-10-29 18:30:00,52.2,32.6,29.97,SSW,210,1.0,1.0,47,0.00,,,0.00,Wunderground v.1.15,2013-10-30 01:30:00,
2013-10-29 18:40:00,51.9,32.3,29.97,SSW,207,0.0,0.0,47,0.00,,,0.00,Wunderground v.1.15,2013-10-30 01:40:00,
2013-10-29 18:45:00,51.7,32.6,29.97,SE,146,0.0,1.0,48,0.00,,,0.00,Wunderground v.1.15,2013-10-30 01:45:00,
2013-10-29 18:55:00,51.1,32.6,29.97,SE,130,1.0,1.0,49,0.00,,,0.00,Wunderground v.1.15,2013-10-30 01:55:00,
2013-10-29 19:00:00,50.8,32.3,29.97,SSW,212,0.0,0.0,49,0.00,,,0.00,Wunderground v.1.15,2013-10-30 02:00:00,
2013-10-29 19:10:00,49.9,32.0,29.97,SW,233,0.0,0.0,50,0.00,,,0.00,Wunderground v.1.15,2013-10-30 02:10:00,
2013-10-29 19:15:00,49.5,32.1,29.97,SW,226,0.0,0.0,51,0.00,,,0.00,Wunderground v.1.15,2013-10-30 02:15:00,
2013-10-29 19:25:00,49.3,32.4,29.97,SW,218,1.0,1.0,52,0.00,,,0.00,Wunderground v.1.15,2013-10-30 02:25:00,
2013-10-29 19:30:00,49.0,32.6,29.97,SSW,212,1.0,2.0,53,0.00,,,0.00,Wunderground v.1.15,2013-10-30 02:30:00,
2013-10-29 19:40:00,48.3,32.4,29.97,SSW,194,2.0,2.0,54,0.00,,,0.00,Wunderground v.1.15,2013-10-30 02:40:00,
2013-10-29 19:45:00,48.2,32.3,29.97,SSW,212,2.0,2.0,54,0.00,,,0.00,Wunderground v.1.15,2013-10-30 02:45:00,